sensor_id;sensor_type;location;lat;lon;timestamp;temperature;humidity
1880;DHT22;49285;49.002;8.390;2022-12-07T00:01:40;6.80;99.90
1880;DHT22;49285;49.002;8.390;2022-12-07T00:04:07;6.80;99.90
1880;DHT22;49285;49.002;8.390;2022-12-07T00:06:41;6.80;99.90
1880;DHT22;49285;49.002;8.390;2022-12-07T00:09:11;6.80;99.90
1880;DHT22;49285;49.002;8.390;2022-12-07T00:11:37;6.80;99.90
1880;DHT22;49285;49.002;8.390;2022-12-07T00:14:05;6.80;99.90
1880;DHT22;49285;49.002;8.390;2022-12-07T00:16:33;6.80;99.90
1880;DHT22;49285;49.002;8.390;2022-12-07T00:18:59;6.80;99.90
1880;DHT22;49285;49.002;8.390;2022-12-07T00:21:27;6.80;99.90
1880;DHT22;49285;49.002;8.390;2022-12-07T00:23:54;6.80;99.90
1880;DHT22;49285;49.002;8.390;2022-12-07T00:28:51;6.70;99.90
1880;DHT22;49285;49.002;8.390;2022-12-07T00:31:19;6.80;99.90
1880;DHT22;49285;49.002;8.390;2022-12-07T00:33:45;6.70;99.90
1880;DHT22;49285;49.002;8.390;2022-12-07T00:36:13;6.70;99.90
1880;DHT22;49285;49.002;8.390;2022-12-07T00:38:40;6.60;99.90
1880;DHT22;49285;49.002;8.390;2022-12-07T00:41:11;6.70;99.90
1880;DHT22;49285;49.002;8.390;2022-12-07T00:43:38;6.60;99.90
1880;DHT22;49285;49.002;8.390;2022-12-07T00:46:04;6.60;99.90
1880;DHT22;49285;49.002;8.390;2022-12-07T00:48:30;6.60;99.90
1880;DHT22;49285;49.002;8.390;2022-12-07T00:50:55;6.60;99.90
1880;DHT22;49285;49.002;8.390;2022-12-07T00:53:22;6.60;99.90
1880;DHT22;49285;49.002;8.390;2022-12-07T00:55:48;6.60;99.90
1880;DHT22;49285;49.002;8.390;2022-12-07T00:58:14;6.60;99.90
1880;DHT22;49285;49.002;8.390;2022-12-07T01:00:41;6.70;99.90
1880;DHT22;49285;49.002;8.390;2022-12-07T01:03:09;6.70;99.90
1880;DHT22;49285;49.002;8.390;2022-12-07T01:05:35;6.60;99.90
1880;DHT22;49285;49.002;8.390;2022-12-07T01:08:00;6.60;99.90
1880;DHT22;49285;49.002;8.390;2022-12-07T01:10:26;6.70;99.90
1880;DHT22;49285;49.002;8.390;2022-12-07T01:12:52;6.60;99.90
1880;DHT22;49285;49.002;8.390;2022-12-07T01:15:18;6.50;99.90
1880;DHT22;49285;49.002;8.390;2022-12-07T01:17:44;6.50;99.90
1880;DHT22;49285;49.002;8.390;2022-12-07T01:20:10;6.50;99.90
1880;DHT22;49285;49.002;8.390;2022-12-07T01:22:40;6.50;99.90
1880;DHT22;49285;49.002;8.390;2022-12-07T01:25:08;6.60;99.90
1880;DHT22;49285;49.002;8.390;2022-12-07T01:27:35;6.50;99.90
1880;DHT22;49285;49.002;8.390;2022-12-07T01:30:01;6.60;99.90
1880;DHT22;49285;49.002;8.390;2022-12-07T01:32:27;6.60;99.90
1880;DHT22;49285;49.002;8.390;2022-12-07T01:34:52;6.50;99.90
1880;DHT22;49285;49.002;8.390;2022-12-07T01:37:18;6.50;99.90
1880;DHT22;49285;49.002;8.390;2022-12-07T01:39:44;6.50;99.90
1880;DHT22;49285;49.002;8.390;2022-12-07T01:42:10;6.50;99.90
1880;DHT22;49285;49.002;8.390;2022-12-07T01:47:40;6.60;99.90
1880;DHT22;49285;49.002;8.390;2022-12-07T01:50:06;6.50;99.90
1880;DHT22;49285;49.002;8.390;2022-12-07T01:52:33;6.50;99.90
1880;DHT22;49285;49.002;8.390;2022-12-07T01:55:03;6.60;99.90
1880;DHT22;49285;49.002;8.390;2022-12-07T01:57:31;6.60;99.90
1880;DHT22;49285;49.002;8.390;2022-12-07T01:59:58;6.60;99.90
1880;DHT22;49285;49.002;8.390;2022-12-07T02:02:30;6.70;99.90
1880;DHT22;49285;49.002;8.390;2022-12-07T02:04:59;6.70;99.90
1880;DHT22;49285;49.002;8.390;2022-12-07T02:07:25;6.50;99.90
1880;DHT22;49285;49.002;8.390;2022-12-07T02:09:52;6.60;99.90
1880;DHT22;49285;49.002;8.390;2022-12-07T02:12:17;6.60;99.90
1880;DHT22;49285;49.002;8.390;2022-12-07T02:14:43;6.60;99.90
1880;DHT22;49285;49.002;8.390;2022-12-07T02:20:15;6.50;99.90
1880;DHT22;49285;49.002;8.390;2022-12-07T02:22:49;6.50;99.90
1880;DHT22;49285;49.002;8.390;2022-12-07T02:26:06;6.50;99.90
1880;DHT22;49285;49.002;8.390;2022-12-07T02:28:37;6.50;99.90
1880;DHT22;49285;49.002;8.390;2022-12-07T02:31:15;6.40;99.90
1880;DHT22;49285;49.002;8.390;2022-12-07T02:33:50;6.40;99.90
1880;DHT22;49285;49.002;8.390;2022-12-07T02:36:28;6.40;99.90
1880;DHT22;49285;49.002;8.390;2022-12-07T02:39:02;6.30;99.90
1880;DHT22;49285;49.002;8.390;2022-12-07T02:41:36;6.40;99.90
1880;DHT22;49285;49.002;8.390;2022-12-07T02:44:07;6.40;99.90
1880;DHT22;49285;49.002;8.390;2022-12-07T02:46:41;6.50;99.90
1880;DHT22;49285;49.002;8.390;2022-12-07T02:49:08;6.40;99.90
1880;DHT22;49285;49.002;8.390;2022-12-07T02:51:39;6.40;99.90
1880;DHT22;49285;49.002;8.390;2022-12-07T02:54:13;6.50;99.90
1880;DHT22;49285;49.002;8.390;2022-12-07T02:56:48;6.40;99.90
1880;DHT22;49285;49.002;8.390;2022-12-07T02:59:32;6.40;99.90
1880;DHT22;49285;49.002;8.390;2022-12-07T03:02:24;6.50;99.90
1880;DHT22;49285;49.002;8.390;2022-12-07T03:08:17;6.50;99.90
1880;DHT22;49285;49.002;8.390;2022-12-07T03:11:00;6.30;99.90
1880;DHT22;49285;49.002;8.390;2022-12-07T03:13:49;6.30;99.90
1880;DHT22;49285;49.002;8.390;2022-12-07T03:18:55;6.30;99.90
1880;DHT22;49285;49.002;8.390;2022-12-07T03:21:25;6.20;99.90
1880;DHT22;49285;49.002;8.390;2022-12-07T03:23:56;6.20;99.90
1880;DHT22;49285;49.002;8.390;2022-12-07T03:26:31;6.20;99.90
1880;DHT22;49285;49.002;8.390;2022-12-07T03:29:05;6.20;99.90
1880;DHT22;49285;49.002;8.390;2022-12-07T03:31:37;6.10;99.90
1880;DHT22;49285;49.002;8.390;2022-12-07T03:36:48;6.10;99.90
1880;DHT22;49285;49.002;8.390;2022-12-07T03:42:03;6.10;99.90
1880;DHT22;49285;49.002;8.390;2022-12-07T03:44:30;6.10;99.90
1880;DHT22;49285;49.002;8.390;2022-12-07T03:47:15;6.20;99.90
1880;DHT22;49285;49.002;8.390;2022-12-07T03:49:46;6.10;99.90
1880;DHT22;49285;49.002;8.390;2022-12-07T03:52:17;6.10;99.90
1880;DHT22;49285;49.002;8.390;2022-12-07T03:55:02;6.20;99.90
1880;DHT22;49285;49.002;8.390;2022-12-07T03:57:30;6.20;99.90
1880;DHT22;49285;49.002;8.390;2022-12-07T03:59:57;6.20;99.90
1880;DHT22;49285;49.002;8.390;2022-12-07T04:02:25;6.20;99.90
1880;DHT22;49285;49.002;8.390;2022-12-07T04:04:51;6.10;99.90
1880;DHT22;49285;49.002;8.390;2022-12-07T04:07:17;6.10;99.90
1880;DHT22;49285;49.002;8.390;2022-12-07T04:09:42;6.10;99.90
1880;DHT22;49285;49.002;8.390;2022-12-07T04:12:08;6.10;99.90
1880;DHT22;49285;49.002;8.390;2022-12-07T04:14:33;6.10;99.90
1880;DHT22;49285;49.002;8.390;2022-12-07T04:16:59;6.10;99.90
1880;DHT22;49285;49.002;8.390;2022-12-07T04:19:27;6.00;99.90
1880;DHT22;49285;49.002;8.390;2022-12-07T04:21:53;6.00;99.90
1880;DHT22;49285;49.002;8.390;2022-12-07T04:24:19;6.00;99.90
1880;DHT22;49285;49.002;8.390;2022-12-07T04:26:45;6.10;99.90
1880;DHT22;49285;49.002;8.390;2022-12-07T04:29:11;6.20;99.90
1880;DHT22;49285;49.002;8.390;2022-12-07T04:31:38;6.10;99.90
1880;DHT22;49285;49.002;8.390;2022-12-07T04:34:04;6.10;99.90
1880;DHT22;49285;49.002;8.390;2022-12-07T04:36:30;6.20;99.90
1880;DHT22;49285;49.002;8.390;2022-12-07T04:38:56;6.10;99.90
1880;DHT22;49285;49.002;8.390;2022-12-07T04:41:22;6.20;99.90
1880;DHT22;49285;49.002;8.390;2022-12-07T04:43:56;6.00;99.90
1880;DHT22;49285;49.002;8.390;2022-12-07T04:46:23;6.00;99.90
1880;DHT22;49285;49.002;8.390;2022-12-07T04:48:50;6.00;99.90
1880;DHT22;49285;49.002;8.390;2022-12-07T04:51:19;6.10;99.90
1880;DHT22;49285;49.002;8.390;2022-12-07T04:53:45;6.00;99.90
1880;DHT22;49285;49.002;8.390;2022-12-07T04:56:11;6.00;99.90
1880;DHT22;49285;49.002;8.390;2022-12-07T04:58:36;5.80;99.90
1880;DHT22;49285;49.002;8.390;2022-12-07T05:01:02;5.90;99.90
1880;DHT22;49285;49.002;8.390;2022-12-07T05:03:27;5.90;99.90
1880;DHT22;49285;49.002;8.390;2022-12-07T05:05:53;5.90;99.90
1880;DHT22;49285;49.002;8.390;2022-12-07T05:08:18;5.90;99.90
1880;DHT22;49285;49.002;8.390;2022-12-07T05:10:44;6.00;99.90
1880;DHT22;49285;49.002;8.390;2022-12-07T05:13:09;6.10;99.90
1880;DHT22;49285;49.002;8.390;2022-12-07T05:15:35;6.10;99.90
1880;DHT22;49285;49.002;8.390;2022-12-07T05:18:01;6.10;99.90
1880;DHT22;49285;49.002;8.390;2022-12-07T05:20:26;6.10;99.90
1880;DHT22;49285;49.002;8.390;2022-12-07T05:22:52;6.20;99.90
1880;DHT22;49285;49.002;8.390;2022-12-07T05:25:17;6.20;99.90
1880;DHT22;49285;49.002;8.390;2022-12-07T05:27:43;6.10;99.90
1880;DHT22;49285;49.002;8.390;2022-12-07T05:30:09;6.10;99.90
1880;DHT22;49285;49.002;8.390;2022-12-07T05:32:34;6.10;99.90
1880;DHT22;49285;49.002;8.390;2022-12-07T05:35:00;6.20;99.90
1880;DHT22;49285;49.002;8.390;2022-12-07T05:37:25;6.10;99.90
1880;DHT22;49285;49.002;8.390;2022-12-07T05:39:51;6.00;99.90
1880;DHT22;49285;49.002;8.390;2022-12-07T05:42:16;6.00;99.90
1880;DHT22;49285;49.002;8.390;2022-12-07T05:44:46;6.00;99.90
1880;DHT22;49285;49.002;8.390;2022-12-07T05:47:13;5.90;99.90
1880;DHT22;49285;49.002;8.390;2022-12-07T05:49:39;6.00;99.90
1880;DHT22;49285;49.002;8.390;2022-12-07T05:52:05;6.00;99.90
1880;DHT22;49285;49.002;8.390;2022-12-07T05:54:30;6.00;99.90
1880;DHT22;49285;49.002;8.390;2022-12-07T05:56:56;5.90;99.90
1880;DHT22;49285;49.002;8.390;2022-12-07T05:59:21;5.90;99.90
1880;DHT22;49285;49.002;8.390;2022-12-07T06:01:52;6.00;99.90
1880;DHT22;49285;49.002;8.390;2022-12-07T06:04:19;6.00;99.90
1880;DHT22;49285;49.002;8.390;2022-12-07T06:06:45;6.00;99.90
1880;DHT22;49285;49.002;8.390;2022-12-07T06:09:11;5.80;99.90
1880;DHT22;49285;49.002;8.390;2022-12-07T06:11:38;5.80;99.90
1880;DHT22;49285;49.002;8.390;2022-12-07T06:14:22;5.90;99.90
1880;DHT22;49285;49.002;8.390;2022-12-07T06:16:48;5.90;99.90
1880;DHT22;49285;49.002;8.390;2022-12-07T06:19:13;5.90;99.90
1880;DHT22;49285;49.002;8.390;2022-12-07T06:21:39;5.90;99.90
1880;DHT22;49285;49.002;8.390;2022-12-07T06:24:05;6.00;99.90
1880;DHT22;49285;49.002;8.390;2022-12-07T06:26:31;6.00;99.90
1880;DHT22;49285;49.002;8.390;2022-12-07T06:28:57;6.00;99.90
1880;DHT22;49285;49.002;8.390;2022-12-07T06:31:22;5.90;99.90
1880;DHT22;49285;49.002;8.390;2022-12-07T06:33:48;6.00;99.90
1880;DHT22;49285;49.002;8.390;2022-12-07T06:36:13;6.10;99.90
1880;DHT22;49285;49.002;8.390;2022-12-07T06:38:39;6.10;99.90
1880;DHT22;49285;49.002;8.390;2022-12-07T06:41:05;6.00;99.90
1880;DHT22;49285;49.002;8.390;2022-12-07T06:43:31;6.00;99.90
1880;DHT22;49285;49.002;8.390;2022-12-07T06:45:57;6.00;99.90
1880;DHT22;49285;49.002;8.390;2022-12-07T06:48:23;6.00;99.90
1880;DHT22;49285;49.002;8.390;2022-12-07T06:50:48;6.00;99.90
1880;DHT22;49285;49.002;8.390;2022-12-07T06:53:14;6.00;99.90
1880;DHT22;49285;49.002;8.390;2022-12-07T06:55:40;5.90;99.90
1880;DHT22;49285;49.002;8.390;2022-12-07T06:58:05;5.90;99.90
1880;DHT22;49285;49.002;8.390;2022-12-07T07:00:31;5.80;99.90
1880;DHT22;49285;49.002;8.390;2022-12-07T07:02:56;5.80;99.90
1880;DHT22;49285;49.002;8.390;2022-12-07T07:05:22;5.80;99.90
1880;DHT22;49285;49.002;8.390;2022-12-07T07:07:51;5.80;99.90
1880;DHT22;49285;49.002;8.390;2022-12-07T07:10:16;5.70;99.90
1880;DHT22;49285;49.002;8.390;2022-12-07T07:12:42;5.60;99.90
1880;DHT22;49285;49.002;8.390;2022-12-07T07:15:08;5.60;99.90
1880;DHT22;49285;49.002;8.390;2022-12-07T07:17:33;5.60;99.90
1880;DHT22;49285;49.002;8.390;2022-12-07T07:19:59;5.60;99.90
1880;DHT22;49285;49.002;8.390;2022-12-07T07:22:24;5.70;99.90
1880;DHT22;49285;49.002;8.390;2022-12-07T07:24:50;5.70;99.90
1880;DHT22;49285;49.002;8.390;2022-12-07T07:27:16;5.80;99.90
1880;DHT22;49285;49.002;8.390;2022-12-07T07:29:42;5.80;99.90
1880;DHT22;49285;49.002;8.390;2022-12-07T07:32:07;5.80;99.90
1880;DHT22;49285;49.002;8.390;2022-12-07T07:34:33;5.80;99.90
1880;DHT22;49285;49.002;8.390;2022-12-07T07:36:59;5.80;99.90
1880;DHT22;49285;49.002;8.390;2022-12-07T07:39:24;5.80;99.90
1880;DHT22;49285;49.002;8.390;2022-12-07T07:41:50;5.80;99.90
1880;DHT22;49285;49.002;8.390;2022-12-07T07:44:16;5.80;99.90
1880;DHT22;49285;49.002;8.390;2022-12-07T07:46:41;5.80;99.90
1880;DHT22;49285;49.002;8.390;2022-12-07T07:49:08;5.80;99.90
1880;DHT22;49285;49.002;8.390;2022-12-07T07:51:34;5.70;99.90
1880;DHT22;49285;49.002;8.390;2022-12-07T07:54:00;5.70;99.90
1880;DHT22;49285;49.002;8.390;2022-12-07T07:56:25;5.80;99.90
1880;DHT22;49285;49.002;8.390;2022-12-07T07:58:54;5.80;99.90
1880;DHT22;49285;49.002;8.390;2022-12-07T08:01:20;5.80;99.90
1880;DHT22;49285;49.002;8.390;2022-12-07T08:03:49;5.80;99.90
1880;DHT22;49285;49.002;8.390;2022-12-07T08:06:15;5.80;99.90
1880;DHT22;49285;49.002;8.390;2022-12-07T08:08:40;5.70;99.90
1880;DHT22;49285;49.002;8.390;2022-12-07T08:11:10;5.80;99.90
1880;DHT22;49285;49.002;8.390;2022-12-07T08:13:36;5.80;99.90
1880;DHT22;49285;49.002;8.390;2022-12-07T08:16:07;5.80;99.90
1880;DHT22;49285;49.002;8.390;2022-12-07T08:18:38;5.80;99.90
1880;DHT22;49285;49.002;8.390;2022-12-07T08:21:04;5.80;99.90
1880;DHT22;49285;49.002;8.390;2022-12-07T08:23:30;5.80;99.90
1880;DHT22;49285;49.002;8.390;2022-12-07T08:26:00;5.90;99.90
1880;DHT22;49285;49.002;8.390;2022-12-07T08:28:27;5.90;99.90
1880;DHT22;49285;49.002;8.390;2022-12-07T08:30:52;5.90;99.90
1880;DHT22;49285;49.002;8.390;2022-12-07T08:33:23;5.80;99.90
1880;DHT22;49285;49.002;8.390;2022-12-07T08:35:48;5.80;99.90
1880;DHT22;49285;49.002;8.390;2022-12-07T08:38:14;5.80;99.90
1880;DHT22;49285;49.002;8.390;2022-12-07T08:40:40;5.80;99.90
1880;DHT22;49285;49.002;8.390;2022-12-07T08:43:05;5.90;99.90
1880;DHT22;49285;49.002;8.390;2022-12-07T08:45:31;6.00;99.90
1880;DHT22;49285;49.002;8.390;2022-12-07T08:48:06;6.00;99.90
1880;DHT22;49285;49.002;8.390;2022-12-07T08:50:34;6.10;99.90
1880;DHT22;49285;49.002;8.390;2022-12-07T08:53:02;5.90;99.90
1880;DHT22;49285;49.002;8.390;2022-12-07T08:55:29;5.90;99.90
1880;DHT22;49285;49.002;8.390;2022-12-07T08:57:58;6.00;99.90
1880;DHT22;49285;49.002;8.390;2022-12-07T09:00:23;6.00;99.90
1880;DHT22;49285;49.002;8.390;2022-12-07T09:02:49;5.90;99.90
1880;DHT22;49285;49.002;8.390;2022-12-07T09:05:15;5.90;99.90
1880;DHT22;49285;49.002;8.390;2022-12-07T09:07:42;5.90;99.90
1880;DHT22;49285;49.002;8.390;2022-12-07T09:10:08;5.80;99.90
1880;DHT22;49285;49.002;8.390;2022-12-07T09:12:34;5.80;99.90
1880;DHT22;49285;49.002;8.390;2022-12-07T09:14:59;5.90;99.90
1880;DHT22;49285;49.002;8.390;2022-12-07T09:17:26;5.90;99.90
1880;DHT22;49285;49.002;8.390;2022-12-07T09:19:52;5.90;99.90
1880;DHT22;49285;49.002;8.390;2022-12-07T09:22:18;6.00;99.90
1880;DHT22;49285;49.002;8.390;2022-12-07T09:24:44;6.10;99.90
1880;DHT22;49285;49.002;8.390;2022-12-07T09:27:11;6.20;99.90
1880;DHT22;49285;49.002;8.390;2022-12-07T09:29:36;6.20;99.90
1880;DHT22;49285;49.002;8.390;2022-12-07T09:32:02;6.30;99.90
1880;DHT22;49285;49.002;8.390;2022-12-07T09:34:30;6.30;99.90
1880;DHT22;49285;49.002;8.390;2022-12-07T09:36:57;6.30;99.90
1880;DHT22;49285;49.002;8.390;2022-12-07T09:39:22;6.30;99.90
1880;DHT22;49285;49.002;8.390;2022-12-07T09:41:48;6.40;99.90
1880;DHT22;49285;49.002;8.390;2022-12-07T09:44:23;6.40;99.90
1880;DHT22;49285;49.002;8.390;2022-12-07T09:46:50;6.30;99.90
1880;DHT22;49285;49.002;8.390;2022-12-07T09:49:21;6.20;99.90
1880;DHT22;49285;49.002;8.390;2022-12-07T09:51:58;6.30;99.90
1880;DHT22;49285;49.002;8.390;2022-12-07T09:54:24;6.40;99.90
1880;DHT22;49285;49.002;8.390;2022-12-07T09:56:50;6.40;99.90
1880;DHT22;49285;49.002;8.390;2022-12-07T09:59:19;6.50;99.90
1880;DHT22;49285;49.002;8.390;2022-12-07T10:01:46;6.50;99.90
1880;DHT22;49285;49.002;8.390;2022-12-07T10:04:22;6.50;99.90
1880;DHT22;49285;49.002;8.390;2022-12-07T10:06:49;6.50;99.90
1880;DHT22;49285;49.002;8.390;2022-12-07T10:09:18;6.60;99.90
1880;DHT22;49285;49.002;8.390;2022-12-07T10:14:31;6.70;99.90
1880;DHT22;49285;49.002;8.390;2022-12-07T10:16:57;6.60;99.90
1880;DHT22;49285;49.002;8.390;2022-12-07T10:19:31;6.60;99.90
1880;DHT22;49285;49.002;8.390;2022-12-07T10:24:33;6.70;99.90
1880;DHT22;49285;49.002;8.390;2022-12-07T10:26:59;6.70;99.90
1880;DHT22;49285;49.002;8.390;2022-12-07T10:29:32;6.70;99.90
1880;DHT22;49285;49.002;8.390;2022-12-07T10:32:28;6.80;99.90
1880;DHT22;49285;49.002;8.390;2022-12-07T10:34:50;6.80;99.90
1880;DHT22;49285;49.002;8.390;2022-12-07T10:37:17;6.80;99.90
1880;DHT22;49285;49.002;8.390;2022-12-07T10:39:47;6.80;99.90
1880;DHT22;49285;49.002;8.390;2022-12-07T10:42:30;6.80;99.90
1880;DHT22;49285;49.002;8.390;2022-12-07T10:45:15;6.80;99.90
1880;DHT22;49285;49.002;8.390;2022-12-07T10:53:15;6.70;99.90
1880;DHT22;49285;49.002;8.390;2022-12-07T10:55:48;6.70;99.90
1880;DHT22;49285;49.002;8.390;2022-12-07T11:01:29;6.60;99.90
1880;DHT22;49285;49.002;8.390;2022-12-07T11:06:39;6.60;99.90
1880;DHT22;49285;49.002;8.390;2022-12-07T11:17:58;6.60;99.90
1880;DHT22;49285;49.002;8.390;2022-12-07T11:26:01;6.70;99.90
1880;DHT22;49285;49.002;8.390;2022-12-07T11:31:28;6.60;99.90
1880;DHT22;49285;49.002;8.390;2022-12-07T11:34:14;6.70;99.90
1880;DHT22;49285;49.002;8.390;2022-12-07T11:36:49;6.80;99.90
1880;DHT22;49285;49.002;8.390;2022-12-07T11:39:30;6.80;99.90
1880;DHT22;49285;49.002;8.390;2022-12-07T11:42:09;6.80;99.90
1880;DHT22;49285;49.002;8.390;2022-12-07T11:45:02;6.80;99.90
1880;DHT22;49285;49.002;8.390;2022-12-07T11:47:45;6.70;99.90
1880;DHT22;49285;49.002;8.390;2022-12-07T11:50:28;6.70;99.90
1880;DHT22;49285;49.002;8.390;2022-12-07T11:55:49;6.80;99.90
1880;DHT22;49285;49.002;8.390;2022-12-07T11:58:27;6.80;99.90
1880;DHT22;49285;49.002;8.390;2022-12-07T12:01:22;6.70;99.90
1880;DHT22;49285;49.002;8.390;2022-12-07T12:03:52;6.70;99.90
1880;DHT22;49285;49.002;8.390;2022-12-07T12:06:19;6.70;99.90
1880;DHT22;49285;49.002;8.390;2022-12-07T12:14:45;6.90;99.90
1880;DHT22;49285;49.002;8.390;2022-12-07T12:17:19;7.00;99.90
1880;DHT22;49285;49.002;8.390;2022-12-07T12:20:13;7.00;99.90
1880;DHT22;49285;49.002;8.390;2022-12-07T12:22:53;7.10;99.90
1880;DHT22;49285;49.002;8.390;2022-12-07T12:25:40;7.10;99.90
1880;DHT22;49285;49.002;8.390;2022-12-07T12:28:22;7.00;99.90
1880;DHT22;49285;49.002;8.390;2022-12-07T12:31:09;7.00;99.90
1880;DHT22;49285;49.002;8.390;2022-12-07T12:33:35;7.10;99.90
1880;DHT22;49285;49.002;8.390;2022-12-07T12:36:25;7.00;99.90
1880;DHT22;49285;49.002;8.390;2022-12-07T12:39:18;7.00;99.90
1880;DHT22;49285;49.002;8.390;2022-12-07T12:46:51;7.10;99.90
1880;DHT22;49285;49.002;8.390;2022-12-07T12:54:25;7.00;99.90
1880;DHT22;49285;49.002;8.390;2022-12-07T12:57:15;7.10;99.90
1880;DHT22;49285;49.002;8.390;2022-12-07T12:59:56;7.10;99.90
1880;DHT22;49285;49.002;8.390;2022-12-07T13:26:16;7.10;99.90
1880;DHT22;49285;49.002;8.390;2022-12-07T13:28:52;7.00;99.90
1880;DHT22;49285;49.002;8.390;2022-12-07T13:31:48;7.10;99.90
1880;DHT22;49285;49.002;8.390;2022-12-07T13:34:40;7.10;99.90
1880;DHT22;49285;49.002;8.390;2022-12-07T13:39:50;7.10;99.90
1880;DHT22;49285;49.002;8.390;2022-12-07T13:44:51;7.00;99.90
1880;DHT22;49285;49.002;8.390;2022-12-07T13:50:01;7.00;99.90
1880;DHT22;49285;49.002;8.390;2022-12-07T13:52:28;7.00;99.90
1880;DHT22;49285;49.002;8.390;2022-12-07T13:57:31;7.10;99.90
1880;DHT22;49285;49.002;8.390;2022-12-07T14:00:00;7.10;99.90
1880;DHT22;49285;49.002;8.390;2022-12-07T14:02:34;7.00;99.90
1880;DHT22;49285;49.002;8.390;2022-12-07T14:05:15;6.80;99.90
1880;DHT22;49285;49.002;8.390;2022-12-07T14:08:00;7.00;99.90
1880;DHT22;49285;49.002;8.390;2022-12-07T14:10:34;6.90;99.90
1880;DHT22;49285;49.002;8.390;2022-12-07T14:13:02;7.00;99.90
1880;DHT22;49285;49.002;8.390;2022-12-07T14:15:33;6.90;99.90
1880;DHT22;49285;49.002;8.390;2022-12-07T14:18:01;6.90;99.90
1880;DHT22;49285;49.002;8.390;2022-12-07T14:20:39;7.00;99.90
1880;DHT22;49285;49.002;8.390;2022-12-07T14:23:21;7.00;99.90
1880;DHT22;49285;49.002;8.390;2022-12-07T14:25:49;6.90;99.90
1880;DHT22;49285;49.002;8.390;2022-12-07T14:28:27;7.00;99.90
1880;DHT22;49285;49.002;8.390;2022-12-07T14:30:53;7.00;99.90
1880;DHT22;49285;49.002;8.390;2022-12-07T14:33:19;7.00;99.90
1880;DHT22;49285;49.002;8.390;2022-12-07T14:35:44;7.00;99.90
1880;DHT22;49285;49.002;8.390;2022-12-07T14:38:10;7.00;99.90
1880;DHT22;49285;49.002;8.390;2022-12-07T14:40:35;7.00;99.90
1880;DHT22;49285;49.002;8.390;2022-12-07T14:43:08;7.00;99.90
1880;DHT22;49285;49.002;8.390;2022-12-07T14:45:34;7.00;99.90
1880;DHT22;49285;49.002;8.390;2022-12-07T14:48:00;7.00;99.90
1880;DHT22;49285;49.002;8.390;2022-12-07T14:50:25;7.00;99.90
1880;DHT22;49285;49.002;8.390;2022-12-07T14:52:54;7.00;99.90
1880;DHT22;49285;49.002;8.390;2022-12-07T14:55:24;7.00;99.90
1880;DHT22;49285;49.002;8.390;2022-12-07T14:57:50;7.00;99.90
1880;DHT22;49285;49.002;8.390;2022-12-07T15:00:17;7.00;99.90
1880;DHT22;49285;49.002;8.390;2022-12-07T15:02:44;6.90;99.90
1880;DHT22;49285;49.002;8.390;2022-12-07T15:05:10;6.90;99.90
1880;DHT22;49285;49.002;8.390;2022-12-07T15:07:36;6.90;99.90
1880;DHT22;49285;49.002;8.390;2022-12-07T15:10:02;7.00;99.90
1880;DHT22;49285;49.002;8.390;2022-12-07T15:12:28;7.00;99.90
1880;DHT22;49285;49.002;8.390;2022-12-07T15:14:54;7.00;99.90
1880;DHT22;49285;49.002;8.390;2022-12-07T15:17:19;6.90;99.90
1880;DHT22;49285;49.002;8.390;2022-12-07T15:19:45;7.00;99.90
1880;DHT22;49285;49.002;8.390;2022-12-07T15:22:10;7.10;99.90
1880;DHT22;49285;49.002;8.390;2022-12-07T15:24:36;7.10;99.90
1880;DHT22;49285;49.002;8.390;2022-12-07T15:27:02;7.10;99.90
1880;DHT22;49285;49.002;8.390;2022-12-07T15:29:28;7.10;99.90
1880;DHT22;49285;49.002;8.390;2022-12-07T15:31:53;7.00;99.90
1880;DHT22;49285;49.002;8.390;2022-12-07T15:34:19;7.00;99.90
1880;DHT22;49285;49.002;8.390;2022-12-07T15:36:44;7.00;99.90
1880;DHT22;49285;49.002;8.390;2022-12-07T15:39:10;7.00;99.90
1880;DHT22;49285;49.002;8.390;2022-12-07T15:41:37;7.00;99.90
1880;DHT22;49285;49.002;8.390;2022-12-07T15:44:02;7.00;99.90
1880;DHT22;49285;49.002;8.390;2022-12-07T15:46:47;6.90;99.90
1880;DHT22;49285;49.002;8.390;2022-12-07T15:49:17;6.90;99.90
1880;DHT22;49285;49.002;8.390;2022-12-07T15:51:44;6.80;99.90
1880;DHT22;49285;49.002;8.390;2022-12-07T15:54:24;6.70;99.90
1880;DHT22;49285;49.002;8.390;2022-12-07T15:56:49;6.80;99.90
1880;DHT22;49285;49.002;8.390;2022-12-07T15:59:15;6.80;99.90
1880;DHT22;49285;49.002;8.390;2022-12-07T16:01:41;6.90;99.90
1880;DHT22;49285;49.002;8.390;2022-12-07T16:04:07;6.90;99.90
1880;DHT22;49285;49.002;8.390;2022-12-07T16:06:33;6.80;99.90
1880;DHT22;49285;49.002;8.390;2022-12-07T16:08:58;6.70;99.90
1880;DHT22;49285;49.002;8.390;2022-12-07T16:11:24;6.70;99.90
1880;DHT22;49285;49.002;8.390;2022-12-07T16:13:50;6.70;99.90
1880;DHT22;49285;49.002;8.390;2022-12-07T16:16:17;6.70;99.90
1880;DHT22;49285;49.002;8.390;2022-12-07T16:18:44;6.70;99.90
1880;DHT22;49285;49.002;8.390;2022-12-07T16:21:11;6.70;99.90
1880;DHT22;49285;49.002;8.390;2022-12-07T16:23:36;6.70;99.90
1880;DHT22;49285;49.002;8.390;2022-12-07T16:26:14;6.60;99.90
1880;DHT22;49285;49.002;8.390;2022-12-07T16:28:40;6.60;99.90
1880;DHT22;49285;49.002;8.390;2022-12-07T16:31:14;6.60;99.90
1880;DHT22;49285;49.002;8.390;2022-12-07T16:33:41;6.70;99.90
1880;DHT22;49285;49.002;8.390;2022-12-07T16:36:09;6.60;99.90
1880;DHT22;49285;49.002;8.390;2022-12-07T16:38:35;6.70;99.90
1880;DHT22;49285;49.002;8.390;2022-12-07T16:41:01;6.70;99.90
1880;DHT22;49285;49.002;8.390;2022-12-07T16:43:27;6.70;99.90
1880;DHT22;49285;49.002;8.390;2022-12-07T16:45:53;6.70;99.90
1880;DHT22;49285;49.002;8.390;2022-12-07T16:48:18;6.70;99.90
1880;DHT22;49285;49.002;8.390;2022-12-07T16:50:44;6.60;99.90
1880;DHT22;49285;49.002;8.390;2022-12-07T16:53:11;6.60;99.90
1880;DHT22;49285;49.002;8.390;2022-12-07T16:55:42;6.60;99.90
1880;DHT22;49285;49.002;8.390;2022-12-07T16:58:09;6.50;99.90
1880;DHT22;49285;49.002;8.390;2022-12-07T17:00:36;6.50;99.90
1880;DHT22;49285;49.002;8.390;2022-12-07T17:03:02;6.50;99.90
1880;DHT22;49285;49.002;8.390;2022-12-07T17:05:28;6.50;99.90
1880;DHT22;49285;49.002;8.390;2022-12-07T17:07:54;6.40;99.90
1880;DHT22;49285;49.002;8.390;2022-12-07T17:10:20;6.40;99.90
1880;DHT22;49285;49.002;8.390;2022-12-07T17:12:46;6.50;99.90
1880;DHT22;49285;49.002;8.390;2022-12-07T17:15:12;6.50;99.90
1880;DHT22;49285;49.002;8.390;2022-12-07T17:17:52;6.50;99.90
1880;DHT22;49285;49.002;8.390;2022-12-07T17:20:18;6.50;99.90
1880;DHT22;49285;49.002;8.390;2022-12-07T17:22:46;6.50;99.90
1880;DHT22;49285;49.002;8.390;2022-12-07T17:25:12;6.50;99.90
1880;DHT22;49285;49.002;8.390;2022-12-07T17:27:38;6.50;99.90
1880;DHT22;49285;49.002;8.390;2022-12-07T17:30:04;6.50;99.90
1880;DHT22;49285;49.002;8.390;2022-12-07T17:32:30;6.50;99.90
1880;DHT22;49285;49.002;8.390;2022-12-07T17:34:56;6.50;99.90
1880;DHT22;49285;49.002;8.390;2022-12-07T17:37:22;6.40;99.90
1880;DHT22;49285;49.002;8.390;2022-12-07T17:39:47;6.40;99.90
1880;DHT22;49285;49.002;8.390;2022-12-07T17:42:13;6.40;99.90
1880;DHT22;49285;49.002;8.390;2022-12-07T17:44:57;6.40;99.90
1880;DHT22;49285;49.002;8.390;2022-12-07T17:47:23;6.30;99.90
1880;DHT22;49285;49.002;8.390;2022-12-07T17:49:48;6.40;99.90
1880;DHT22;49285;49.002;8.390;2022-12-07T17:52:15;6.40;99.90
1880;DHT22;49285;49.002;8.390;2022-12-07T17:54:59;6.30;99.90
1880;DHT22;49285;49.002;8.390;2022-12-07T17:57:24;6.40;99.90
1880;DHT22;49285;49.002;8.390;2022-12-07T17:59:50;6.40;99.90
1880;DHT22;49285;49.002;8.390;2022-12-07T18:02:17;6.40;99.90